Time;durP1;ratioP1;P1;durP2;ratioP2;P2;SDS_P1;SDS_P2;PMS_P1;PMS_P2;Temp;Humidity;BMP_temperature;BMP_pressure;BME280_temperature;BME280_humidity;BME280_pressure;Samples;Min_cycle;Max_cycle;Signal;HPM_P1;HPM_P2
2023/02/19 00:02:18;;;;;;;11.93;8.33;;;;;;;;;;5053490;28;20457;-70
2023/02/19 00:04:45;;;;;;;11.40;7.70;;;;;;;;;;5053527;28;20463;-70
2023/02/19 00:07:14;;;;;;;11.00;8.97;;;;;;;;;;5053261;28;20477;-70
2023/02/19 00:09:41;;;;;;;10.80;7.73;;;;;;;;;;5053252;28;20437;-70
2023/02/19 00:12:08;;;;;;;13.17;8.97;;;;;;;;;;5053767;28;20441;-71
2023/02/19 00:14:36;;;;;;;12.47;9.37;;;;;;;;;;5053437;28;20446;-70
2023/02/19 00:17:03;;;;;;;13.93;9.03;;;;;;;;;;5053204;28;20445;-71
2023/02/19 00:19:30;;;;;;;14.57;10.37;;;;;;;;;;5053562;28;20836;-71
2023/02/19 00:21:57;;;;;;;18.10;9.80;;;;;;;;;;5053241;28;20433;-70
2023/02/19 00:24:26;;;;;;;17.90;11.50;;;;;;;;;;5053205;28;20444;-70
2023/02/19 00:26:53;;;;;;;20.77;12.33;;;;;;;;;;5053738;28;20579;-70
2023/02/19 00:29:21;;;;;;;21.40;13.70;;;;;;;;;;5053240;28;20438;-70
2023/02/19 00:31:49;;;;;;;17.20;11.80;;;;;;;;;;5053654;28;20920;-69
2023/02/19 00:34:16;;;;;;;27.37;14.13;;;;;;;;;;5053475;28;20769;-68
2023/02/19 00:36:43;;;;;;;30.77;16.80;;;;;;;;;;5053357;28;20433;-69
2023/02/19 00:39:12;;;;;;;25.57;15.33;;;;;;;;;;5052792;28;20440;-69
2023/02/19 00:41:41;;;;;;;30.63;18.40;;;;;;;;;;5052875;28;20953;-70
2023/02/19 00:44:08;;;;;;;31.43;16.00;;;;;;;;;;5053240;28;20443;-71
2023/02/19 00:46:36;;;;;;;29.83;18.90;;;;;;;;;;5052599;28;20446;-70
2023/02/19 00:49:04;;;;;;;32.40;19.50;;;;;;;;;;5053241;28;20434;-70
2023/02/19 00:51:33;;;;;;;32.47;15.50;;;;;;;;;;5052988;28;20441;-70
2023/02/19 00:54:00;;;;;;;41.27;20.53;;;;;;;;;;5052748;28;20433;-70
2023/02/19 00:56:27;;;;;;;39.57;19.50;;;;;;;;;;5052799;28;20461;-70
2023/02/19 00:58:56;;;;;;;44.43;21.67;;;;;;;;;;5052450;28;20445;-70
2023/02/19 01:01:23;;;;;;;38.40;21.70;;;;;;;;;;5053135;28;20792;-71
2023/02/19 01:03:51;;;;;;;37.67;20.70;;;;;;;;;;5052748;28;20441;-70
2023/02/19 01:06:19;;;;;;;34.40;20.63;;;;;;;;;;5053058;28;20430;-70
2023/02/19 01:08:46;;;;;;;38.13;22.60;;;;;;;;;;5052415;28;20486;-70
2023/02/19 01:11:14;;;;;;;45.13;23.10;;;;;;;;;;5052707;28;20433;-70
2023/02/19 01:13:43;;;;;;;45.47;22.33;;;;;;;;;;5052534;28;20938;-70
2023/02/19 01:16:12;;;;;;;34.83;19.33;;;;;;;;;;5053160;28;20434;-70
2023/02/19 01:18:40;;;;;;;35.17;19.90;;;;;;;;;;5052885;28;20434;-70
2023/02/19 01:21:07;;;;;;;34.30;19.93;;;;;;;;;;5052806;28;20439;-70
2023/02/19 01:23:35;;;;;;;47.77;22.33;;;;;;;;;;5052423;28;20452;-71
2023/02/19 01:26:04;;;;;;;37.13;20.37;;;;;;;;;;5053146;28;20433;-70
2023/02/19 01:28:31;;;;;;;36.40;20.87;;;;;;;;;;5052418;28;20470;-70
2023/02/19 01:31:01;;;;;;;57.30;22.43;;;;;;;;;;5052484;28;20753;-70
2023/02/19 01:33:29;;;;;;;32.70;18.50;;;;;;;;;;5052526;28;20433;-70
2023/02/19 01:35:56;;;;;;;32.50;17.27;;;;;;;;;;5052423;28;20457;-69
2023/02/19 01:38:24;;;;;;;29.60;17.53;;;;;;;;;;5052882;28;20439;-69
2023/02/19 01:40:55;;;;;;;34.77;19.30;;;;;;;;;;5052151;28;20444;-69
2023/02/19 01:43:22;;;;;;;41.07;22.03;;;;;;;;;;5052552;28;20886;-69
2023/02/19 01:45:49;;;;;;;29.80;18.13;;;;;;;;;;5052305;28;20468;-70
2023/02/19 01:48:20;;;;;;;29.37;17.67;;;;;;;;;;5052293;28;20468;-69
2023/02/19 01:50:51;;;;;;;36.50;18.10;;;;;;;;;;5052438;28;20432;-69
2023/02/19 01:53:20;;;;;;;40.97;20.73;;;;;;;;;;5053157;28;20426;-69
2023/02/19 01:55:48;;;;;;;40.53;19.27;;;;;;;;;;5051918;28;20437;-69
2023/02/19 01:58:16;;;;;;;40.13;20.90;;;;;;;;;;5054353;28;20810;-69
2023/02/19 02:00:43;;;;;;;29.53;17.30;;;;;;;;;;5055903;28;20783;-68
2023/02/19 02:03:11;;;;;;;28.40;17.20;;;;;;;;;;5055965;28;20442;-68
2023/02/19 02:05:43;;;;;;;31.10;17.27;;;;;;;;;;5055812;28;20484;-68
2023/02/19 02:10:58;;;;;;;28.17;18.50;;;;;;;;;;5055511;28;20394;-69
2023/02/19 02:13:25;;;;;;;26.73;17.43;;;;;;;;;;5055734;28;20440;-69
2023/02/19 02:15:55;;;;;;;26.77;17.43;;;;;;;;;;5055575;28;20505;-69
2023/02/19 02:18:30;;;;;;;35.60;20.30;;;;;;;;;;5055886;28;20479;-69
2023/02/19 02:21:05;;;;;;;32.70;18.67;;;;;;;;;;5055718;28;20426;-70
2023/02/19 02:23:41;;;;;;;26.67;15.03;;;;;;;;;;5055362;28;20424;-69
2023/02/19 02:26:26;;;;;;;28.53;17.67;;;;;;;;;;5055470;28;20422;-69
2023/02/19 02:29:13;;;;;;;34.23;18.93;;;;;;;;;;5055041;28;20481;-69
2023/02/19 02:31:43;;;;;;;27.77;15.47;;;;;;;;;;5055438;28;20757;-69
2023/02/19 02:34:13;;;;;;;32.50;16.27;;;;;;;;;;5055222;28;20443;-69
2023/02/19 02:36:42;;;;;;;27.53;17.67;;;;;;;;;;5055038;28;20438;-69
2023/02/19 02:39:11;;;;;;;31.93;17.63;;;;;;;;;;5055209;28;20438;-68
2023/02/19 02:41:42;;;;;;;41.40;19.67;;;;;;;;;;5055012;28;20435;-68
2023/02/19 02:44:09;;;;;;;26.67;16.80;;;;;;;;;;5055066;28;20417;-68
2023/02/19 02:46:39;;;;;;;27.60;17.20;;;;;;;;;;5054834;28;20442;-67
2023/02/19 02:49:10;;;;;;;38.50;18.30;;;;;;;;;;5055092;28;20809;-67
2023/02/19 02:51:39;;;;;;;26.77;16.47;;;;;;;;;;5055354;28;20421;-67
2023/02/19 02:56:55;;;;;;;29.37;17.93;;;;;;;;;;5020641;28;20441;-69
2023/02/19 02:59:24;;;;;;;31.80;17.07;;;;;;;;;;5054460;28;20442;-68
2023/02/19 03:02:12;;;;;;;27.90;15.13;;;;;;;;;;5054869;28;20798;-68
2023/02/19 03:07:28;;;;;;;27.30;13.80;;;;;;;;;;5053497;28;20403;-70
2023/02/19 03:09:57;;;;;;;20.90;12.70;;;;;;;;;;5053155;28;21006;-69
2023/02/19 03:20:46;;;;;;;25.00;11.90;;;;;;;;;;5054591;28;20392;-69
2023/02/19 03:23:14;;;;;;;20.50;12.07;;;;;;;;;;5054715;28;20429;-69
2023/02/19 03:31:10;;;;;;;22.17;12.83;;;;;;;;;;5065873;28;20435;-70
2023/02/19 03:33:39;;;;;;;20.73;12.93;;;;;;;;;;5074321;28;20441;-70
2023/02/19 03:36:08;;;;;;;24.77;14.50;;;;;;;;;;5073859;28;20433;-70
2023/02/19 03:38:38;;;;;;;22.43;13.10;;;;;;;;;;5074498;28;20440;-69
2023/02/19 03:41:07;;;;;;;24.80;14.50;;;;;;;;;;5074053;28;20443;-70
2023/02/19 03:43:38;;;;;;;22.20;13.30;;;;;;;;;;5074114;28;20536;-69
2023/02/19 03:46:08;;;;;;;20.33;11.70;;;;;;;;;;5073837;28;20443;-70
2023/02/19 03:48:36;;;;;;;18.57;12.10;;;;;;;;;;5074579;28;20776;-69
2023/02/19 03:51:18;;;;;;;20.53;13.23;;;;;;;;;;5073766;28;20433;-69
2023/02/19 03:53:50;;;;;;;17.08;12.60;;;;;;;;;;5074301;28;20431;-69
2023/02/19 03:56:20;;;;;;;20.77;13.33;;;;;;;;;;5073587;28;20182;-69
2023/02/19 03:58:53;;;;;;;21.37;12.30;;;;;;;;;;5073782;28;20421;-69
2023/02/19 04:01:21;;;;;;;20.53;13.50;;;;;;;;;;5073325;28;20493;-69
2023/02/19 04:03:52;;;;;;;23.53;13.90;;;;;;;;;;5073272;28;20446;-70
2023/02/19 04:06:23;;;;;;;16.47;11.93;;;;;;;;;;5073169;28;20431;-69
2023/02/19 04:08:51;;;;;;;19.00;11.80;;;;;;;;;;5073867;28;20789;-69
2023/02/19 04:11:19;;;;;;;21.00;12.40;;;;;;;;;;5073235;28;20440;-69
2023/02/19 04:13:48;;;;;;;21.17;13.67;;;;;;;;;;5073359;28;20523;-69
2023/02/19 04:16:18;;;;;;;22.03;12.07;;;;;;;;;;5073028;28;20438;-70
2023/02/19 04:18:47;;;;;;;19.43;11.80;;;;;;;;;;5073121;28;20443;-69
2023/02/19 04:21:15;;;;;;;19.63;13.30;;;;;;;;;;5073112;28;20428;-69
2023/02/19 04:23:44;;;;;;;17.30;12.13;;;;;;;;;;5073028;28;20433;-69
2023/02/19 04:26:12;;;;;;;16.67;11.57;;;;;;;;;;5073110;28;20433;-70
2023/02/19 04:28:41;;;;;;;20.83;12.50;;;;;;;;;;5073334;28;20476;-69
2023/02/19 04:31:09;;;;;;;18.90;12.73;;;;;;;;;;5072837;28;20475;-70
2023/02/19 04:33:36;;;;;;;14.97;11.60;;;;;;;;;;5072768;28;20511;-70
2023/02/19 04:36:03;;;;;;;16.50;11.07;;;;;;;;;;5073453;28;20439;-69
2023/02/19 04:38:31;;;;;;;18.70;11.10;;;;;;;;;;5073062;28;20429;-70
2023/02/19 04:40:59;;;;;;;18.03;10.50;;;;;;;;;;5073262;28;20871;-70
2023/02/19 04:43:26;;;;;;;20.67;11.30;;;;;;;;;;5072157;28;20429;-70
2023/02/19 04:45:53;;;;;;;17.47;10.90;;;;;;;;;;5072468;28;20440;-70
2023/02/19 04:48:21;;;;;;;20.87;12.93;;;;;;;;;;5072905;28;20479;-70
2023/02/19 04:50:48;;;;;;;16.90;12.10;;;;;;;;;;5072995;28;20428;-71
2023/02/19 04:53:15;;;;;;;16.65;10.55;;;;;;;;;;5072795;28;20433;-68
2023/02/19 04:55:42;;;;;;;13.70;11.20;;;;;;;;;;5072828;28;20193;-68
2023/02/19 04:58:11;;;;;;;11.90;9.55;;;;;;;;;;5072777;28;20447;-69
2023/02/19 05:00:38;;;;;;;12.98;9.30;;;;;;;;;;5073488;28;20197;-69
2023/02/19 05:03:05;;;;;;;15.15;11.13;;;;;;;;;;5072434;28;20198;-69
2023/02/19 05:05:32;;;;;;;11.07;9.13;;;;;;;;;;5068052;28;20225;-68
2023/02/19 05:07:59;;;;;;;15.17;10.03;;;;;;;;;;5071212;28;20429;-69
2023/02/19 05:10:27;;;;;;;17.43;10.23;;;;;;;;;;5072344;28;20454;-69
2023/02/19 05:12:55;;;;;;;11.53;8.40;;;;;;;;;;5071972;28;20436;-69
2023/02/19 05:15:24;;;;;;;13.27;9.30;;;;;;;;;;5063189;28;20438;-69
2023/02/19 05:17:51;;;;;;;16.03;9.37;;;;;;;;;;5051743;28;20434;-69
2023/02/19 05:20:18;;;;;;;13.43;9.52;;;;;;;;;;5051721;28;20429;-69
2023/02/19 05:22:45;;;;;;;13.70;8.20;;;;;;;;;;5052214;28;20202;-69
2023/02/19 05:25:12;;;;;;;10.77;8.23;;;;;;;;;;5051916;28;20551;-68
2023/02/19 05:27:40;;;;;;;11.37;8.70;;;;;;;;;;5051741;28;20906;-69
2023/02/19 05:30:07;;;;;;;11.83;7.30;;;;;;;;;;5052297;28;20839;-69
2023/02/19 05:32:36;;;;;;;16.20;8.93;;;;;;;;;;5052748;28;20448;-69
2023/02/19 05:35:04;;;;;;;13.77;8.73;;;;;;;;;;5056148;28;20910;-68
2023/02/19 05:37:31;;;;;;;10.37;8.50;;;;;;;;;;5056335;28;20191;-68
2023/02/19 05:39:58;;;;;;;11.10;7.83;;;;;;;;;;5056415;28;20560;-68
2023/02/19 05:42:25;;;;;;;11.80;8.80;;;;;;;;;;5056087;28;20440;-68
2023/02/19 05:44:52;;;;;;;11.00;8.27;;;;;;;;;;5055503;28;20439;-70
2023/02/19 05:47:19;;;;;;;12.90;10.37;;;;;;;;;;5055609;28;20441;-69
2023/02/19 05:49:48;;;;;;;14.23;8.70;;;;;;;;;;5055865;28;20501;-68
2023/02/19 05:52:15;;;;;;;14.67;8.90;;;;;;;;;;5059648;28;20421;-69
2023/02/19 05:54:42;;;;;;;8.57;7.67;;;;;;;;;;5075675;28;20441;-68
2023/02/19 05:57:09;;;;;;;11.30;9.23;;;;;;;;;;5075735;28;20447;-68
2023/02/19 05:59:36;;;;;;;11.60;9.67;;;;;;;;;;5075566;28;20439;-68
2023/02/19 06:02:04;;;;;;;11.87;7.67;;;;;;;;;;5075693;28;20488;-68
2023/02/19 06:04:31;;;;;;;16.80;10.13;;;;;;;;;;5071336;28;20457;-67
2023/02/19 06:06:59;;;;;;;14.17;8.93;;;;;;;;;;5074863;28;20931;-68
2023/02/19 06:09:26;;;;;;;10.70;8.50;;;;;;;;;;5075425;28;20475;-67
2023/02/19 06:11:54;;;;;;;14.67;10.20;;;;;;;;;;5075830;28;20433;-68
2023/02/19 06:14:21;;;;;;;13.43;9.00;;;;;;;;;;5075137;28;20765;-68
2023/02/19 06:16:48;;;;;;;10.70;7.93;;;;;;;;;;5075436;28;20937;-67
2023/02/19 06:19:15;;;;;;;11.40;8.57;;;;;;;;;;5075751;28;20433;-67
2023/02/19 06:21:42;;;;;;;12.43;9.00;;;;;;;;;;5075502;28;20533;-67
2023/02/19 06:24:11;;;;;;;13.87;7.50;;;;;;;;;;5074981;28;20425;-68
2023/02/19 06:26:38;;;;;;;11.93;8.73;;;;;;;;;;5075285;28;20519;-68
2023/02/19 06:29:06;;;;;;;17.73;10.33;;;;;;;;;;5075307;28;20464;-67
2023/02/19 06:31:33;;;;;;;17.90;9.60;;;;;;;;;;5075365;28;20436;-68
2023/02/19 06:34:00;;;;;;;12.00;9.13;;;;;;;;;;5071918;28;20445;-67
2023/02/19 06:36:27;;;;;;;15.40;10.33;;;;;;;;;;5055058;28;20442;-67
2023/02/19 06:38:54;;;;;;;16.17;10.20;;;;;;;;;;5054995;28;20441;-67
2023/02/19 06:41:23;;;;;;;17.33;11.50;;;;;;;;;;5054712;28;20437;-67
2023/02/19 06:43:50;;;;;;;14.30;10.93;;;;;;;;;;5054336;28;20731;-67
2023/02/19 06:46:17;;;;;;;15.70;9.60;;;;;;;;;;5054337;28;20906;-66
2023/02/19 06:48:45;;;;;;;18.87;9.53;;;;;;;;;;5055151;28;20474;-66
2023/02/19 06:51:13;;;;;;;12.80;9.27;;;;;;;;;;5055070;28;20429;-66
2023/02/19 06:53:40;;;;;;;19.07;9.60;;;;;;;;;;5054414;28;20888;-67
2023/02/19 06:56:08;;;;;;;17.13;10.33;;;;;;;;;;5054245;28;20783;-67
2023/02/19 06:58:36;;;;;;;13.13;8.80;;;;;;;;;;5054851;28;20827;-67
2023/02/19 07:01:04;;;;;;;11.47;8.00;;;;;;;;;;5054444;28;20433;-67
2023/02/19 07:03:31;;;;;;;16.57;8.70;;;;;;;;;;5053877;28;20855;-68
2023/02/19 07:06:00;;;;;;;12.60;7.90;;;;;;;;;;5053675;28;20818;-67
2023/02/19 07:08:27;;;;;;;12.93;9.27;;;;;;;;;;5054577;28;20433;-67
2023/02/19 07:10:55;;;;;;;12.37;9.00;;;;;;;;;;5054567;28;20491;-67
2023/02/19 07:13:22;;;;;;;13.77;8.37;;;;;;;;;;5054617;28;20441;-68
2023/02/19 07:15:51;;;;;;;13.13;9.00;;;;;;;;;;5054228;28;20536;-67
2023/02/19 07:18:18;;;;;;;12.20;7.87;;;;;;;;;;5054474;28;20457;-67
2023/02/19 07:20:45;;;;;;;12.03;7.90;;;;;;;;;;5054345;28;20438;-67
2023/02/19 07:23:12;;;;;;;11.73;8.17;;;;;;;;;;5053822;28;20430;-68
2023/02/19 07:25:40;;;;;;;15.20;8.67;;;;;;;;;;5053159;28;20439;-67
2023/02/19 07:28:07;;;;;;;13.10;7.97;;;;;;;;;;5054120;28;20442;-68
2023/02/19 07:30:34;;;;;;;12.67;8.00;;;;;;;;;;5054109;28;20469;-67
2023/02/19 07:33:03;;;;;;;11.10;7.73;;;;;;;;;;5054012;28;20433;-67
2023/02/19 07:35:30;;;;;;;16.30;7.83;;;;;;;;;;5053376;28;20437;-67
2023/02/19 07:37:57;;;;;;;15.90;8.90;;;;;;;;;;5054026;28;20469;-67
2023/02/19 07:40:24;;;;;;;13.70;7.77;;;;;;;;;;5054141;28;20537;-67
2023/02/19 07:42:52;;;;;;;11.03;8.20;;;;;;;;;;5053838;28;20430;-67
2023/02/19 07:45:19;;;;;;;19.23;8.87;;;;;;;;;;5053138;28;20445;-67
2023/02/19 07:47:46;;;;;;;9.63;8.53;;;;;;;;;;5053695;28;20434;-67
2023/02/19 07:50:14;;;;;;;13.50;9.00;;;;;;;;;;5053502;28;20568;-67
2023/02/19 07:52:42;;;;;;;11.97;8.60;;;;;;;;;;5053541;28;20442;-65
2023/02/19 07:55:09;;;;;;;17.30;10.03;;;;;;;;;;5052057;28;20434;-67
2023/02/19 07:57:36;;;;;;;24.00;10.10;;;;;;;;;;5053305;28;20437;-67
2023/02/19 08:00:03;;;;;;;13.20;8.47;;;;;;;;;;5053593;28;20780;-67
2023/02/19 08:05:16;;;;;;;12.45;7.32;;;;;;;;;;5053192;28;20533;-70
2023/02/19 08:07:44;;;;;;;12.10;7.43;;;;;;;;;;5040506;28;20199;-66
2023/02/19 08:15:41;;;;;;;4.90;3.20;;;;;;;;;;5032764;28;20398;-66
2023/02/19 08:18:08;;;;;;;4.05;3.65;;;;;;;;;;5033343;28;20199;-67
2023/02/19 08:20:37;;;;;;;2.10;1.90;;;;;;;;;;5033452;28;20206;-66
2023/02/19 08:23:04;;;;;;;2.05;1.90;;;;;;;;;;5033139;28;20196;-67
2023/02/19 08:25:31;;;;;;;2.40;2.20;;;;;;;;;;5033027;28;20195;-66
2023/02/19 08:27:59;;;;;;;2.75;2.38;;;;;;;;;;5033068;28;20195;-67
2023/02/19 08:30:26;;;;;;;2.05;1.90;;;;;;;;;;5033059;28;20613;-67
2023/02/19 08:32:53;;;;;;;2.58;1.98;;;;;;;;;;5032857;28;20214;-67
2023/02/19 08:35:21;;;;;;;2.40;2.20;;;;;;;;;;5046400;28;20229;-67
2023/02/19 08:37:49;;;;;;;2.60;2.28;;;;;;;;;;5052765;28;20191;-67
2023/02/19 08:40:17;;;;;;;2.38;2.17;;;;;;;;;;5052695;28;20195;-67
2023/02/19 08:42:44;;;;;;;2.90;2.70;;;;;;;;;;5052388;28;20197;-67
2023/02/19 08:45:11;;;;;;;2.72;2.20;;;;;;;;;;5052845;28;20201;-67
2023/02/19 08:47:38;;;;;;;2.85;2.55;;;;;;;;;;5052968;28;20187;-67
2023/02/19 08:50:06;;;;;;;3.00;2.70;;;;;;;;;;5052776;28;20215;-67
2023/02/19 08:52:34;;;;;;;2.53;2.33;;;;;;;;;;5053704;28;20277;-67
2023/02/19 08:55:02;;;;;;;3.25;2.95;;;;;;;;;;5052075;28;20202;-67
2023/02/19 08:57:30;;;;;;;2.80;2.60;;;;;;;;;;5052777;28;20195;-66
2023/02/19 08:59:57;;;;;;;3.33;2.90;;;;;;;;;;5051909;28;20194;-67
2023/02/19 09:02:25;;;;;;;3.78;3.25;;;;;;;;;;5052212;28;20200;-67
2023/02/19 09:04:52;;;;;;;3.30;3.00;;;;;;;;;;5052027;28;20755;-66
2023/02/19 09:07:19;;;;;;;3.60;3.30;;;;;;;;;;5054375;28;20652;-67
2023/02/19 09:09:47;;;;;;;5.15;4.28;;;;;;;;;;5055848;28;20218;-67
2023/02/19 09:12:17;;;;;;;9.50;4.25;;;;;;;;;;5056345;28;20194;-66
2023/02/19 09:14:44;;;;;;;3.83;3.33;;;;;;;;;;5056498;28;20193;-67
2023/02/19 09:17:11;;;;;;;11.77;8.38;;;;;;;;;;5056268;28;20208;-67
2023/02/19 09:19:38;;;;;;;8.02;5.95;;;;;;;;;;5056253;28;20198;-67
2023/02/19 09:22:06;;;;;;;2.80;2.50;;;;;;;;;;5056093;28;20190;-67
2023/02/19 09:24:33;;;;;;;3.58;3.28;;;;;;;;;;5056707;28;20217;-67
2023/02/19 09:27:00;;;;;;;3.47;2.70;;;;;;;;;;5056241;28;20201;-67
2023/02/19 09:29:29;;;;;;;1.98;1.88;;;;;;;;;;5056609;28;20537;-66
2023/02/19 09:31:57;;;;;;;2.10;1.80;;;;;;;;;;5056403;28;20557;-66
2023/02/19 09:34:25;;;;;;;3.15;2.13;;;;;;;;;;5056457;28;20630;-66
2023/02/19 09:36:52;;;;;;;4.13;2.25;;;;;;;;;;5055525;28;20190;-67
2023/02/19 09:39:19;;;;;;;3.25;2.65;;;;;;;;;;5056135;28;20190;-66
2023/02/19 09:41:48;;;;;;;3.00;2.42;;;;;;;;;;5055926;28;20194;-66
2023/02/19 09:44:19;;;;;;;2.40;2.20;;;;;;;;;;5056174;28;20284;-66
2023/02/19 09:46:48;;;;;;;2.58;2.38;;;;;;;;;;5056255;28;20193;-66
2023/02/19 09:49:16;;;;;;;2.40;2.20;;;;;;;;;;5056699;28;20195;-67
2023/02/19 09:51:46;;;;;;;5.35;3.00;;;;;;;;;;5056187;28;20519;-66
2023/02/19 09:54:15;;;;;;;2.90;2.40;;;;;;;;;;5056302;28;20194;-67
2023/02/19 09:56:42;;;;;;;4.80;2.70;;;;;;;;;;5055507;28;20193;-66
2023/02/19 09:59:16;;;;;;;2.88;2.50;;;;;;;;;;5055880;28;20187;-67
2023/02/19 10:01:44;;;;;;;2.78;2.42;;;;;;;;;;5055702;28;20190;-67
2023/02/19 10:04:13;;;;;;;4.60;3.30;;;;;;;;;;5055275;28;20221;-66
2023/02/19 10:06:40;;;;;;;4.15;2.60;;;;;;;;;;5055352;28;20198;-67
2023/02/19 10:09:14;;;;;;;4.20;3.40;;;;;;;;;;5055948;28;20195;-67
2023/02/19 10:11:42;;;;;;;3.13;2.67;;;;;;;;;;5055753;28;20217;-67
2023/02/19 10:14:14;;;;;;;2.92;2.20;;;;;;;;;;5055686;28;20641;-67
2023/02/19 10:16:43;;;;;;;4.32;3.30;;;;;;;;;;5054993;28;20186;-67
2023/02/19 10:19:16;;;;;;;3.75;2.95;;;;;;;;;;5054717;28;20194;-66
2023/02/19 10:21:43;;;;;;;2.95;2.70;;;;;;;;;;5055233;28;20182;-67
2023/02/19 10:24:15;;;;;;;3.58;3.25;;;;;;;;;;5054718;28;20635;-67
2023/02/19 10:26:42;;;;;;;5.03;3.40;;;;;;;;;;5055310;28;20183;-67
2023/02/19 10:29:10;;;;;;;3.70;3.17;;;;;;;;;;5055069;28;20201;-66
2023/02/19 10:31:37;;;;;;;4.88;4.47;;;;;;;;;;5055410;28;20223;-66
2023/02/19 10:34:06;;;;;;;3.90;3.50;;;;;;;;;;5055277;28;20516;-67
2023/02/19 10:36:37;;;;;;;4.20;3.78;;;;;;;;;;5054499;28;20191;-66
2023/02/19 10:39:08;;;;;;;6.28;4.47;;;;;;;;;;5055574;28;20296;-66
2023/02/19 10:41:35;;;;;;;9.50;6.05;;;;;;;;;;5054960;28;20185;-66
2023/02/19 10:44:06;;;;;;;4.90;3.65;;;;;;;;;;5055278;28;20487;-66
2023/02/19 10:46:34;;;;;;;5.63;4.60;;;;;;;;;;5054908;28;20628;-66
2023/02/19 10:49:02;;;;;;;4.60;4.20;;;;;;;;;;5054881;28;20190;-66
2023/02/19 10:51:33;;;;;;;6.68;4.53;;;;;;;;;;5054975;28;20302;-66
2023/02/19 10:54:06;;;;;;;4.40;3.80;;;;;;;;;;5054864;28;20187;-66
2023/02/19 10:56:33;;;;;;;4.47;4.07;;;;;;;;;;5055420;28;20795;-66
2023/02/19 10:59:15;;;;;;;4.68;3.58;;;;;;;;;;5054942;28;20191;-66
2023/02/19 11:01:54;;;;;;;5.88;4.28;;;;;;;;;;5055193;28;20179;-66
2023/02/19 11:04:21;;;;;;;3.80;3.50;;;;;;;;;;5054854;28;20283;-66
2023/02/19 11:06:49;;;;;;;5.05;4.35;;;;;;;;;;5055362;28;20191;-66
2023/02/19 11:09:24;;;;;;;4.18;3.60;;;;;;;;;;5054792;28;20540;-66
2023/02/19 11:11:52;;;;;;;6.13;4.22;;;;;;;;;;5054923;28;20209;-66
2023/02/19 11:14:22;;;;;;;5.80;3.92;;;;;;;;;;5054759;28;20633;-65
2023/02/19 11:16:51;;;;;;;11.57;7.18;;;;;;;;;;5054337;28;20241;-66
2023/02/19 11:19:25;;;;;;;6.13;3.87;;;;;;;;;;5054618;28;20206;-65
2023/02/19 11:21:53;;;;;;;5.00;3.78;;;;;;;;;;5054610;28;20445;-66
2023/02/19 11:24:25;;;;;;;4.30;3.90;;;;;;;;;;5054156;28;20188;-65
2023/02/19 11:26:53;;;;;;;4.10;3.55;;;;;;;;;;5054104;28;20189;-66
2023/02/19 11:29:23;;;;;;;3.80;3.43;;;;;;;;;;5054439;28;20187;-65
2023/02/19 11:31:50;;;;;;;4.20;3.83;;;;;;;;;;5053667;28;20947;-66
2023/02/19 11:34:30;;;;;;;5.00;3.20;;;;;;;;;;5053948;28;20195;-65
2023/02/19 11:37:12;;;;;;;3.60;2.90;;;;;;;;;;5054263;28;20425;-66
2023/02/19 11:39:41;;;;;;;3.20;2.90;;;;;;;;;;5054008;28;20433;-65
2023/02/19 11:42:14;;;;;;;3.30;3.00;;;;;;;;;;5054009;28;20450;-65
2023/02/19 11:44:54;;;;;;;3.00;2.80;;;;;;;;;;5054321;28;20757;-68
2023/02/19 11:47:33;;;;;;;4.40;3.53;;;;;;;;;;5054033;28;20524;-64
2023/02/19 11:50:03;;;;;;;2.60;2.40;;;;;;;;;;5054525;28;20508;-64
2023/02/19 11:52:34;;;;;;;3.10;2.80;;;;;;;;;;5053661;28;20426;-65
2023/02/19 11:55:07;;;;;;;3.70;3.30;;;;;;;;;;5053910;28;20417;-65
2023/02/19 11:57:41;;;;;;;3.60;2.83;;;;;;;;;;5053748;28;20430;-65
2023/02/19 12:00:32;;;;;;;3.43;3.13;;;;;;;;;;5053495;28;20257;-65
2023/02/19 12:03:13;;;;;;;3.27;2.97;;;;;;;;;;5029356;28;20453;-65
2023/02/19 12:05:49;;;;;;;2.97;2.70;;;;;;;;;;5052403;28;20454;-66
2023/02/19 12:08:34;;;;;;;3.40;3.10;;;;;;;;;;5052255;28;20425;-66
2023/02/19 12:11:20;;;;;;;3.08;2.85;;;;;;;;;;5051949;28;20581;-66
2023/02/19 12:13:56;;;;;;;3.00;2.80;;;;;;;;;;5052150;28;20205;-66
2023/02/19 12:16:24;;;;;;;5.67;3.10;;;;;;;;;;5052641;28;20185;-66
2023/02/19 12:19:08;;;;;;;4.10;3.70;;;;;;;;;;5052884;28;20436;-66
2023/02/19 12:21:41;;;;;;;3.00;2.70;;;;;;;;;;5052898;28;20182;-66
2023/02/19 12:24:16;;;;;;;3.40;3.10;;;;;;;;;;5053548;28;20425;-66
2023/02/19 12:26:47;;;;;;;3.55;3.25;;;;;;;;;;5053022;28;20224;-66
2023/02/19 12:29:24;;;;;;;3.27;3.03;;;;;;;;;;5052922;28;20206;-66
2023/02/19 12:32:05;;;;;;;2.80;2.60;;;;;;;;;;5052966;28;20556;-66
2023/02/19 12:34:53;;;;;;;3.10;2.80;;;;;;;;;;5053137;28;20447;-66
2023/02/19 12:37:25;;;;;;;3.10;2.90;;;;;;;;;;5045160;28;20437;-66
2023/02/19 12:39:59;;;;;;;3.50;3.20;;;;;;;;;;5052611;28;20505;-66
2023/02/19 12:42:38;;;;;;;3.33;3.03;;;;;;;;;;5052624;28;20434;-66
2023/02/19 12:45:09;;;;;;;3.37;3.07;;;;;;;;;;5053786;28;20425;-65
2023/02/19 12:47:37;;;;;;;3.63;3.30;;;;;;;;;;5052886;28;20418;-66
2023/02/19 12:50:09;;;;;;;4.47;3.43;;;;;;;;;;5052646;28;20452;-66
2023/02/19 12:52:39;;;;;;;3.57;3.27;;;;;;;;;;5053496;28;20468;-65
2023/02/19 12:55:14;;;;;;;3.83;3.50;;;;;;;;;;5052658;28;20457;-66
2023/02/19 12:57:41;;;;;;;4.10;3.30;;;;;;;;;;5053222;28;20611;-65
2023/02/19 13:00:18;;;;;;;3.28;2.97;;;;;;;;;;5052830;28;20433;-65
2023/02/19 13:02:49;;;;;;;3.40;3.10;;;;;;;;;;5052627;28;20187;-65
2023/02/19 13:05:19;;;;;;;4.17;3.77;;;;;;;;;;5052767;28;20754;-66
2023/02/19 13:07:52;;;;;;;3.63;3.17;;;;;;;;;;5053108;28;20743;-66
2023/02/19 13:10:28;;;;;;;4.00;3.60;;;;;;;;;;5052809;28;20422;-66
2023/02/19 13:12:55;;;;;;;3.97;3.67;;;;;;;;;;5052821;28;20422;-66
2023/02/19 13:15:32;;;;;;;4.20;3.80;;;;;;;;;;5050484;28;20456;-66
2023/02/19 13:17:59;;;;;;;3.60;3.30;;;;;;;;;;5051284;28;20927;-66
2023/02/19 13:20:30;;;;;;;4.73;3.63;;;;;;;;;;5052211;28;20436;-65
2023/02/19 13:25:51;;;;;;;4.30;3.90;;;;;;;;;;5052443;28;20894;-65
2023/02/19 13:28:24;;;;;;;3.37;3.10;;;;;;;;;;5052214;28;20441;-65
2023/02/19 13:31:02;;;;;;;3.80;3.17;;;;;;;;;;5052884;28;20477;-65
2023/02/19 13:33:36;;;;;;;3.57;3.27;;;;;;;;;;5052106;28;20437;-65
2023/02/19 13:36:13;;;;;;;3.60;3.30;;;;;;;;;;5051699;28;20886;-65
2023/02/19 13:38:41;;;;;;;3.20;2.90;;;;;;;;;;5052178;28;20538;-64
2023/02/19 13:41:17;;;;;;;3.90;3.60;;;;;;;;;;5052027;28;20442;-65
2023/02/19 13:43:45;;;;;;;3.55;3.25;;;;;;;;;;5051502;28;20422;-65
2023/02/19 13:46:16;;;;;;;4.17;3.67;;;;;;;;;;5051878;28;20609;-64
2023/02/19 13:48:44;;;;;;;3.97;3.57;;;;;;;;;;5052113;28;20448;-65
2023/02/19 13:51:30;;;;;;;4.77;4.00;;;;;;;;;;5052084;28;20481;-65
2023/02/19 13:54:00;;;;;;;4.17;3.57;;;;;;;;;;5053794;28;20441;-65
2023/02/19 13:56:38;;;;;;;5.33;3.80;;;;;;;;;;5054672;28;20457;-65
2023/02/19 13:59:29;;;;;;;4.20;3.80;;;;;;;;;;5055456;28;20447;-65
2023/02/19 14:02:12;;;;;;;3.77;3.47;;;;;;;;;;5035920;28;20445;-65
2023/02/19 14:04:47;;;;;;;5.23;4.67;;;;;;;;;;5055451;28;20460;-65
2023/02/19 14:07:21;;;;;;;4.43;3.78;;;;;;;;;;5055836;28;20460;-65
2023/02/19 14:09:49;;;;;;;4.00;3.63;;;;;;;;;;5055816;28;20293;-65
2023/02/19 14:12:20;;;;;;;3.88;3.58;;;;;;;;;;5055788;28;20213;-65
2023/02/19 14:14:47;;;;;;;4.13;3.73;;;;;;;;;;5054882;28;20230;-65
2023/02/19 14:17:26;;;;;;;3.80;3.07;;;;;;;;;;5055208;28;20433;-65
2023/02/19 14:19:56;;;;;;;3.78;3.40;;;;;;;;;;5055678;28;20463;-65
2023/02/19 14:22:41;;;;;;;3.90;3.50;;;;;;;;;;5055393;28;20187;-66
2023/02/19 14:25:18;;;;;;;4.28;3.78;;;;;;;;;;5054559;28;20441;-65
2023/02/19 14:27:46;;;;;;;4.65;3.78;;;;;;;;;;5055247;28;20715;-65
2023/02/19 14:30:13;;;;;;;4.80;3.67;;;;;;;;;;5055311;28;20612;-65
2023/02/19 14:32:41;;;;;;;3.83;3.53;;;;;;;;;;5054936;28;20488;-65
2023/02/19 14:35:18;;;;;;;3.70;3.35;;;;;;;;;;5055451;28;20797;-65
2023/02/19 14:37:46;;;;;;;3.95;3.60;;;;;;;;;;5054749;28;20633;-64
2023/02/19 14:40:18;;;;;;;3.50;3.20;;;;;;;;;;5054555;28;20192;-65
2023/02/19 14:42:45;;;;;;;4.30;3.77;;;;;;;;;;5054761;28;20918;-64
2023/02/19 14:45:14;;;;;;;4.00;3.70;;;;;;;;;;5054712;28;20437;-65
2023/02/19 14:47:42;;;;;;;4.53;3.40;;;;;;;;;;5054894;28;20640;-65
2023/02/19 14:50:13;;;;;;;6.45;4.15;;;;;;;;;;5054968;28;20197;-65
2023/02/19 14:52:45;;;;;;;4.70;3.60;;;;;;;;;;5061910;28;20194;-65
2023/02/19 14:55:18;;;;;;;5.63;3.85;;;;;;;;;;5074761;28;20183;-65
2023/02/19 14:57:47;;;;;;;3.97;3.60;;;;;;;;;;5074511;28;20201;-66
2023/02/19 15:00:23;;;;;;;5.20;3.93;;;;;;;;;;5074216;28;20456;-65
2023/02/19 15:02:50;;;;;;;5.00;4.30;;;;;;;;;;5074313;28;20448;-65
2023/02/19 15:05:18;;;;;;;5.00;4.32;;;;;;;;;;5073849;28;20475;-65
2023/02/19 15:07:46;;;;;;;5.07;4.57;;;;;;;;;;5074127;28;20186;-65
2023/02/19 15:10:14;;;;;;;4.40;4.00;;;;;;;;;;5075019;28;20196;-65
2023/02/19 15:12:45;;;;;;;4.50;4.10;;;;;;;;;;5074442;28;20945;-65
2023/02/19 15:15:17;;;;;;;5.47;4.18;;;;;;;;;;5065291;28;20190;-65
2023/02/19 15:17:44;;;;;;;4.63;4.18;;;;;;;;;;5054170;28;20278;-66
2023/02/19 15:20:12;;;;;;;4.00;3.70;;;;;;;;;;5053617;28;20654;-66